Aérodrome :
LOGIN :

S'inscrire | Disclaimer

   EN    FR    IT 

 










Légende :    VFR   VFR Marginal   IFR   IFR Intensif   IFR Très Intensif
Visi : 
Plafond : 
>= 8 km
>= 3000ft
5 à 8 km
1000 à 3000 ft
1500m à 5 km
500 à 1000 ft
800 à 1500m
200 à 500 ft
< 800m
< 200 ft
Symboles :   Orages  Brouillard  Fortes neiges  Fortes précipitations  Vent > 20 kt
SIGMETs :   Divers  Orages  Givrage  Turbulence  Onde Orograph.  Cendres Volcan.






- Altitude de l'aérodrome : 1900 ft
- Code IATA : FEZ


GMFF - Fez Saiss

DERNIER METAR :
  • 130730Z 26005KT 9999 BKN030 10/06 Q1029 NOSIG

METARs EXPIRÉS :
  • 130700Z 26003KT 220V280 9999 BKN030 10/06 Q1028 NOSIG
  • 130630Z 26005KT 9999 BKN030 11/06 Q1028 NOSIG
  • 130600Z 22005KT 9999 BKN030 10/06 Q1028 NOSIG
  • 130530Z 21007KT 9999 BKN030 10/06 Q1028 NOSIG
  • 130500Z 20006KT 9999 BKN030 10/06 Q1028 NOSIG

TAF COR TAF GMFF
Valide du 13 à 06h jusqu'au 14 à 12h UTC


130500Z 1306/1412 20008KT 9999 FEW013 BKN026
BECMG 1310/1312 28010KT
BECMG 1318/1320 18004KT CAVOK



MET'MAP, la Météo Aéronautique d'un coup d'oeil ! - Copyright ORBIFLY Décembre 2007 - Disclaimer

ORBIFLY MET'MAP TEAM :

Programmation & Développement : Alexandra Zaïnal
Sur une idée originale de : Baudouin d'Aumeries
Assistance à la programmation : Marc-Olivier Méhu
Soutien technique & logistique : Manuel Goepfert

Contact : metmap@orbifly.com




SOURCES & CREDITS :

   NOAA